createdAt,value
2024-02-24T00:02:26.709Z,6.60
2024-02-24T00:04:57.406Z,6.60
2024-02-24T00:07:24.291Z,6.60
2024-02-24T00:09:51.229Z,6.60
2024-02-24T00:12:18.221Z,6.60
2024-02-24T00:14:45.241Z,6.60
2024-02-24T00:17:12.299Z,6.60
2024-02-24T00:19:39.219Z,6.60
2024-02-24T00:22:07.474Z,6.60
2024-02-24T00:24:34.449Z,6.60
2024-02-24T00:27:01.345Z,6.60
2024-02-24T00:29:29.305Z,6.60
2024-02-24T00:31:56.227Z,6.70
2024-02-24T00:34:23.215Z,6.70
2024-02-24T00:36:50.050Z,6.70
2024-02-24T00:39:18.321Z,6.70
2024-02-24T00:41:45.300Z,6.70
2024-02-24T00:44:14.845Z,6.70
2024-02-24T00:46:41.753Z,6.70
2024-02-24T00:49:08.762Z,6.70
2024-02-24T00:51:35.703Z,6.70
2024-02-24T00:54:02.635Z,6.70
2024-02-24T00:56:30.970Z,6.70
2024-02-24T00:58:57.887Z,6.70
2024-02-24T01:01:24.819Z,6.70
2024-02-24T01:03:51.735Z,6.70
2024-02-24T01:06:18.741Z,6.70
2024-02-24T01:08:45.745Z,6.70
2024-02-24T01:11:12.798Z,6.60
2024-02-24T01:13:41.652Z,6.60
2024-02-24T01:16:08.754Z,6.60
2024-02-24T01:18:35.846Z,6.60
2024-02-24T01:21:03.830Z,6.70
2024-02-24T01:23:30.765Z,6.70
2024-02-24T01:25:57.778Z,6.80
2024-02-24T01:28:24.698Z,6.80
2024-02-24T01:30:52.899Z,6.70
2024-02-24T01:33:20.004Z,6.70
2024-02-24T01:35:47.050Z,6.70
2024-02-24T01:38:14.116Z,6.70
2024-02-24T01:40:41.097Z,6.70
2024-02-24T01:43:23.540Z,6.70
2024-02-24T01:45:52.221Z,6.70
2024-02-24T01:48:19.261Z,6.70
2024-02-24T01:50:47.628Z,6.70
2024-02-24T01:53:15.775Z,6.70
2024-02-24T01:55:44.201Z,6.70
2024-02-24T01:58:12.058Z,6.70
2024-02-24T02:00:39.151Z,6.70
2024-02-24T02:03:08.031Z,6.70
2024-02-24T02:05:35.820Z,6.60
2024-02-24T02:08:03.042Z,6.70
2024-02-24T02:10:44.506Z,6.60
2024-02-24T02:13:11.573Z,6.60
2024-02-24T02:15:38.480Z,6.70
2024-02-24T02:18:07.496Z,6.70
2024-02-24T02:20:34.956Z,6.70
2024-02-24T02:23:03.598Z,6.70
2024-02-24T02:25:30.696Z,6.80
2024-02-24T02:27:58.737Z,6.80
2024-02-24T02:30:25.647Z,6.80
2024-02-24T02:32:52.685Z,6.80
2024-02-24T02:35:19.703Z,6.80
2024-02-24T02:37:46.627Z,6.80
2024-02-24T02:40:15.856Z,6.80
2024-02-24T02:42:42.912Z,6.80
2024-02-24T02:45:10.081Z,6.70
2024-02-24T02:47:39.956Z,6.80
2024-02-24T02:50:08.543Z,6.70
2024-02-24T02:52:35.941Z,6.70
2024-02-24T02:55:03.149Z,6.80
2024-02-24T02:57:31.511Z,6.80
2024-02-24T02:59:58.412Z,6.70
2024-02-24T03:02:25.393Z,6.90
2024-02-24T03:04:52.383Z,6.90
2024-02-24T03:07:19.266Z,6.90
2024-02-24T03:09:49.348Z,6.90
2024-02-24T03:12:16.665Z,6.90
2024-02-24T03:14:45.276Z,6.90
2024-02-24T03:17:12.429Z,7.00
2024-02-24T03:19:40.489Z,6.90
2024-02-24T03:22:07.667Z,7.00
2024-02-24T03:24:34.696Z,7.00
2024-02-24T03:27:01.973Z,7.00
2024-02-24T03:29:28.979Z,7.00
2024-02-24T03:31:57.348Z,6.90
2024-02-24T03:34:24.261Z,6.90
2024-02-24T03:36:51.322Z,6.90
2024-02-24T03:39:20.067Z,6.90
2024-02-24T03:41:47.478Z,6.80
2024-02-24T03:44:14.505Z,6.90
2024-02-24T03:46:41.506Z,6.80
2024-02-24T03:49:09.913Z,6.80
2024-02-24T03:51:36.825Z,6.90
2024-02-24T03:54:03.932Z,6.90
2024-02-24T03:56:30.838Z,6.90
2024-02-24T03:58:57.739Z,6.90
2024-02-24T04:01:27.744Z,6.90
2024-02-24T04:03:55.437Z,6.90
2024-02-24T04:06:24.553Z,6.90
2024-02-24T04:08:51.445Z,6.90
2024-02-24T04:11:18.560Z,6.90
2024-02-24T04:13:45.709Z,6.80
2024-02-24T04:16:12.696Z,6.80
2024-02-24T04:18:39.723Z,6.80
2024-02-24T04:21:06.616Z,6.80
2024-02-24T04:23:35.120Z,6.70
2024-02-24T04:26:02.047Z,6.70
2024-02-24T04:28:28.917Z,6.70
2024-02-24T04:30:55.887Z,6.60
2024-02-24T04:33:22.866Z,6.60
2024-02-24T04:35:50.041Z,6.50
2024-02-24T04:38:17.096Z,6.50
2024-02-24T04:40:45.307Z,6.40
2024-02-24T04:43:12.229Z,6.40
2024-02-24T04:45:39.165Z,6.30
2024-02-24T04:48:07.076Z,6.30
2024-02-24T04:50:34.147Z,6.20
2024-02-24T04:53:01.082Z,6.20
2024-02-24T04:55:27.965Z,6.20
2024-02-24T04:57:56.219Z,6.20
2024-02-24T05:00:23.163Z,6.20
2024-02-24T05:02:52.027Z,6.30
2024-02-24T05:05:19.179Z,6.30
2024-02-24T05:07:46.108Z,6.40
2024-02-24T05:10:13.002Z,6.40
2024-02-24T05:12:43.719Z,6.40
2024-02-24T05:15:12.300Z,6.40
2024-02-24T05:17:39.346Z,6.40
2024-02-24T05:20:08.862Z,6.30
2024-02-24T05:22:35.787Z,6.30
2024-02-24T05:25:02.812Z,6.20
2024-02-24T05:27:31.724Z,6.20
2024-02-24T05:29:58.667Z,6.20
2024-02-24T05:32:26.959Z,6.20
2024-02-24T05:34:53.979Z,6.10
2024-02-24T05:37:20.848Z,6.10
2024-02-24T05:39:51.411Z,6.00
2024-02-24T05:42:18.706Z,6.00
2024-02-24T05:44:45.714Z,6.00
2024-02-24T05:47:12.649Z,5.90
2024-02-24T05:49:41.996Z,5.90
2024-02-24T05:52:08.988Z,5.90
2024-02-24T05:54:39.328Z,5.90
2024-02-24T05:57:06.332Z,5.80
2024-02-24T05:59:33.421Z,5.80
2024-02-24T06:02:01.077Z,5.80
2024-02-24T06:04:28.181Z,5.80
2024-02-24T06:06:56.503Z,5.80
2024-02-24T06:09:23.389Z,5.90
2024-02-24T06:11:50.388Z,5.90
2024-02-24T06:14:17.381Z,6.00
2024-02-24T06:16:44.383Z,6.00
2024-02-24T06:19:11.275Z,6.00
2024-02-24T06:21:38.442Z,6.00
2024-02-24T06:24:07.379Z,6.00
2024-02-24T06:26:34.341Z,6.10
2024-02-24T06:29:01.334Z,6.10
2024-02-24T06:31:28.297Z,6.10
2024-02-24T06:33:55.344Z,6.10
2024-02-24T06:36:22.352Z,6.10
2024-02-24T06:38:50.365Z,6.10
2024-02-24T06:41:25.196Z,6.10
2024-02-24T06:43:52.733Z,6.10
2024-02-24T06:46:19.750Z,6.00
2024-02-24T06:48:47.229Z,6.00
2024-02-24T06:51:14.787Z,6.00
2024-02-24T06:53:41.884Z,6.00
2024-02-24T06:56:10.147Z,6.10
2024-02-24T06:58:38.782Z,6.10
2024-02-24T07:01:05.966Z,6.10
2024-02-24T07:03:34.057Z,6.10
2024-02-24T07:06:02.498Z,6.10
2024-02-24T07:08:29.782Z,6.10
2024-02-24T07:10:56.821Z,6.10
2024-02-24T07:13:23.905Z,6.00
2024-02-24T07:15:52.330Z,6.00
2024-02-24T07:18:19.430Z,6.10
2024-02-24T07:20:46.518Z,6.00
2024-02-24T07:23:13.559Z,6.10
2024-02-24T07:25:42.727Z,6.00
2024-02-24T07:28:09.743Z,6.00
2024-02-24T07:30:36.823Z,6.00
2024-02-24T07:33:05.719Z,6.10
2024-02-24T07:35:32.842Z,6.10
2024-02-24T07:37:59.861Z,6.10
2024-02-24T07:40:26.874Z,6.10
2024-02-24T07:42:55.560Z,6.10
2024-02-24T07:45:26.855Z,6.10
2024-02-24T07:47:55.060Z,6.10
2024-02-24T07:50:23.634Z,6.10
2024-02-24T07:52:50.629Z,6.10
2024-02-24T07:55:19.261Z,6.10
2024-02-24T07:57:46.186Z,6.10
2024-02-24T08:00:13.934Z,6.10
2024-02-24T08:02:41.492Z,6.00
2024-02-24T08:05:08.816Z,6.10
2024-02-24T08:07:37.188Z,6.00
2024-02-24T08:10:04.539Z,6.00
2024-02-24T08:12:31.600Z,6.00
2024-02-24T08:14:58.582Z,6.00
2024-02-24T08:17:25.625Z,6.00
2024-02-24T08:19:52.837Z,6.00
2024-02-24T08:22:19.797Z,6.10
2024-02-24T08:24:48.094Z,6.10
2024-02-24T08:27:15.237Z,6.10
2024-02-24T08:29:42.216Z,6.10
2024-02-24T08:32:09.465Z,6.20
2024-02-24T08:34:36.711Z,6.20
2024-02-24T08:37:03.758Z,6.30
2024-02-24T08:39:32.621Z,6.20
2024-02-24T08:42:03.216Z,6.30
2024-02-24T08:44:30.260Z,6.30
2024-02-24T08:46:57.271Z,6.20
2024-02-24T08:49:24.231Z,6.20
2024-02-24T08:51:51.922Z,6.20
2024-02-24T08:54:21.970Z,6.20
2024-02-24T08:56:49.249Z,6.20
2024-02-24T08:59:17.628Z,6.20
2024-02-24T09:01:44.488Z,6.20
2024-02-24T09:04:12.472Z,6.20
2024-02-24T09:06:39.655Z,6.20
2024-02-24T09:09:06.745Z,6.20
2024-02-24T09:11:33.933Z,6.20
2024-02-24T09:14:00.961Z,6.10
2024-02-24T09:16:29.256Z,6.10
2024-02-24T09:18:56.368Z,6.10
2024-02-24T09:21:23.439Z,6.10
2024-02-24T09:23:50.523Z,6.00
2024-02-24T09:26:17.621Z,6.00
2024-02-24T09:28:44.648Z,6.00
2024-02-24T09:31:11.647Z,6.00
2024-02-24T09:33:40.024Z,6.00
2024-02-24T09:36:07.876Z,6.00
2024-02-24T09:38:34.850Z,6.10
2024-02-24T09:41:02.091Z,6.10
2024-02-24T09:43:29.433Z,6.10
2024-02-24T09:45:57.144Z,6.20
2024-02-24T09:48:24.893Z,6.40
2024-02-24T09:50:53.715Z,6.50
2024-02-24T09:53:20.902Z,6.80
2024-02-24T09:55:50.209Z,7.00
2024-02-24T09:58:19.491Z,7.20
2024-02-24T10:00:46.801Z,7.50
2024-02-24T10:03:14.036Z,7.60
2024-02-24T10:05:41.436Z,7.60
2024-02-24T10:08:11.652Z,7.60
2024-02-24T10:10:38.683Z,7.80
2024-02-24T10:13:05.874Z,8.10
2024-02-24T10:15:35.475Z,8.70
2024-02-24T10:18:02.700Z,9.50
2024-02-24T10:20:30.444Z,10.50
2024-02-24T10:22:58.250Z,11.20
2024-02-24T10:25:26.620Z,11.40
2024-02-24T10:27:53.715Z,11.20
2024-02-24T10:30:24.117Z,10.80
2024-02-24T10:32:54.686Z,10.40
2024-02-24T10:35:22.302Z,10.10
2024-02-24T10:38:09.204Z,9.80
2024-02-24T10:40:41.653Z,9.40
2024-02-24T10:43:10.138Z,9.00
2024-02-24T10:45:37.610Z,8.80
2024-02-24T10:48:05.482Z,8.60
2024-02-24T10:50:32.782Z,8.40
2024-02-24T10:53:01.856Z,8.30
2024-02-24T10:55:31.122Z,8.20
2024-02-24T10:57:59.504Z,8.10
2024-02-24T11:00:29.479Z,8.00
2024-02-24T11:02:58.863Z,8.00
2024-02-24T11:05:26.928Z,7.90
2024-02-24T11:07:53.879Z,7.90
2024-02-24T11:10:22.496Z,7.80
2024-02-24T11:12:50.341Z,7.80
2024-02-24T11:15:25.153Z,7.70
2024-02-24T11:17:54.227Z,7.60
2024-02-24T11:20:58.573Z,7.50
2024-02-24T11:23:27.141Z,7.50
2024-02-24T11:26:28.556Z,7.60
2024-02-24T11:29:02.669Z,8.00
2024-02-24T11:31:32.900Z,8.30
2024-02-24T11:34:02.852Z,8.50
2024-02-24T11:36:31.523Z,8.70
2024-02-24T11:38:59.312Z,8.80
2024-02-24T11:41:28.459Z,8.90
2024-02-24T11:43:55.844Z,8.90
2024-02-24T11:46:23.161Z,9.00
2024-02-24T11:48:53.888Z,9.00
2024-02-24T11:51:22.987Z,9.00
2024-02-24T11:53:50.146Z,9.10
2024-02-24T11:56:17.776Z,9.00
2024-02-24T11:58:44.928Z,9.00
2024-02-24T12:01:13.983Z,9.00
2024-02-24T12:03:41.475Z,9.00
2024-02-24T12:06:10.073Z,9.00
2024-02-24T12:08:38.478Z,9.00
2024-02-24T12:11:05.888Z,9.00
2024-02-24T12:13:34.973Z,9.00
2024-02-24T12:16:01.952Z,9.00
2024-02-24T12:18:30.493Z,9.20
2024-02-24T12:20:58.709Z,9.30
2024-02-24T12:23:30.140Z,9.40
2024-02-24T12:25:57.170Z,9.40
2024-02-24T12:28:24.181Z,9.50
2024-02-24T12:30:52.835Z,9.60
2024-02-24T12:33:20.102Z,9.60
2024-02-24T12:35:49.502Z,9.60
2024-02-24T12:38:18.581Z,9.50
2024-02-24T12:40:47.112Z,9.40
2024-02-24T12:43:14.322Z,9.40
2024-02-24T12:45:41.421Z,9.40
2024-02-24T12:48:09.214Z,9.30
2024-02-24T12:50:36.766Z,9.20
2024-02-24T12:53:07.747Z,9.00
2024-02-24T12:55:34.870Z,9.00
2024-02-24T12:58:03.261Z,9.00
2024-02-24T13:00:30.314Z,9.00
2024-02-24T13:03:00.259Z,9.00
2024-02-24T13:05:27.659Z,9.00
2024-02-24T13:07:54.735Z,9.00
2024-02-24T13:10:22.184Z,9.00
2024-02-24T13:12:49.295Z,9.00
2024-02-24T13:15:17.872Z,9.10
2024-02-24T13:17:45.034Z,9.20
2024-02-24T13:20:12.152Z,9.30
2024-02-24T13:22:41.928Z,9.30
2024-02-24T13:25:09.889Z,9.30
2024-02-24T13:27:37.030Z,9.20
2024-02-24T13:30:06.018Z,9.20
2024-02-24T13:32:35.354Z,9.20
2024-02-24T13:35:02.413Z,9.20
2024-02-24T13:37:29.382Z,9.20
2024-02-24T13:39:56.386Z,9.20
2024-02-24T13:42:23.520Z,9.40
2024-02-24T13:44:50.443Z,9.50
2024-02-24T13:47:17.713Z,9.80
2024-02-24T13:49:46.150Z,10.00
2024-02-24T13:52:13.203Z,9.90
2024-02-24T13:54:40.224Z,9.80
2024-02-24T13:57:07.293Z,9.80
2024-02-24T13:59:34.338Z,9.80
2024-02-24T14:02:01.335Z,9.80
2024-02-24T14:04:28.453Z,9.70
2024-02-24T14:06:57.484Z,9.70
2024-02-24T14:09:24.554Z,9.70
2024-02-24T14:11:53.920Z,9.70
2024-02-24T14:14:21.044Z,9.70
2024-02-24T14:16:48.432Z,9.60
2024-02-24T14:19:19.970Z,9.60
2024-02-24T14:21:49.645Z,9.50
2024-02-24T14:24:18.049Z,9.50
2024-02-24T14:26:46.470Z,9.60
2024-02-24T14:29:13.805Z,9.80
2024-02-24T14:31:40.867Z,9.90
2024-02-24T14:34:08.069Z,10.10
2024-02-24T14:36:35.187Z,10.10
2024-02-24T14:39:02.210Z,10.10
2024-02-24T14:41:30.577Z,10.10
2024-02-24T14:43:57.623Z,10.20
2024-02-24T14:46:24.579Z,10.10
2024-02-24T14:48:52.383Z,10.10
2024-02-24T14:51:19.593Z,10.10
2024-02-24T14:53:48.099Z,10.10
2024-02-24T14:56:15.110Z,10.00
2024-02-24T14:58:43.409Z,9.90
2024-02-24T15:01:11.765Z,9.80
2024-02-24T15:03:42.956Z,9.80
2024-02-24T15:06:12.080Z,9.80
2024-02-24T15:08:39.241Z,9.80
2024-02-24T15:11:06.431Z,9.80
2024-02-24T15:13:34.577Z,9.80
2024-02-24T15:16:04.928Z,9.90
2024-02-24T15:18:32.152Z,10.00
2024-02-24T15:20:59.523Z,10.10
2024-02-24T15:23:26.602Z,10.20
2024-02-24T15:25:53.594Z,10.40
2024-02-24T15:28:20.617Z,10.40
2024-02-24T15:30:47.566Z,10.40
2024-02-24T15:33:16.457Z,10.50
2024-02-24T15:35:43.618Z,10.50
2024-02-24T15:38:10.548Z,10.60
2024-02-24T15:40:40.806Z,10.50
2024-02-24T15:43:09.151Z,10.40
2024-02-24T15:45:36.369Z,10.30
2024-02-24T15:48:03.994Z,10.10
2024-02-24T15:50:32.426Z,10.00
2024-02-24T15:52:59.367Z,9.90
2024-02-24T15:55:26.334Z,9.90
2024-02-24T15:57:53.541Z,9.90
2024-02-24T16:00:20.973Z,9.80
2024-02-24T16:02:47.973Z,9.80
2024-02-24T16:05:18.686Z,9.80
2024-02-24T16:07:47.040Z,9.80
2024-02-24T16:10:14.111Z,9.70
2024-02-24T16:12:41.006Z,9.70
2024-02-24T16:15:08.590Z,9.60
2024-02-24T16:17:35.902Z,9.50
2024-02-24T16:20:03.143Z,9.50
2024-02-24T16:22:30.049Z,9.40
2024-02-24T16:24:58.508Z,9.40
2024-02-24T16:27:25.539Z,9.30
2024-02-24T16:29:52.478Z,9.30
2024-02-24T16:32:19.432Z,9.20
2024-02-24T16:34:47.170Z,9.20
2024-02-24T16:37:14.313Z,9.20
2024-02-24T16:39:41.205Z,9.20
2024-02-24T16:42:09.537Z,9.20
2024-02-24T16:44:36.644Z,9.10
2024-02-24T16:47:03.995Z,9.10
2024-02-24T16:49:31.780Z,9.10
2024-02-24T16:51:58.834Z,9.10
2024-02-24T16:54:26.034Z,9.10
2024-02-24T16:56:53.058Z,9.10
2024-02-24T16:59:21.560Z,9.10
2024-02-24T17:01:48.483Z,9.10
2024-02-24T17:04:16.498Z,9.10
2024-02-24T17:06:45.697Z,9.10
2024-02-24T17:09:12.712Z,9.10
2024-02-24T17:11:40.053Z,9.10
2024-02-24T17:14:07.101Z,9.10
2024-02-24T17:16:35.502Z,9.00
2024-02-24T17:19:02.606Z,9.00
2024-02-24T17:21:31.695Z,9.00
2024-02-24T17:23:59.149Z,9.00
2024-02-24T17:26:26.149Z,9.00
2024-02-24T17:28:53.200Z,8.90
2024-02-24T17:31:20.112Z,8.90
2024-02-24T17:33:48.719Z,8.90
2024-02-24T17:36:16.581Z,8.90
2024-02-24T17:38:43.597Z,8.90
2024-02-24T17:41:10.774Z,8.90
2024-02-24T17:43:37.836Z,8.90
2024-02-24T17:46:05.168Z,8.90
2024-02-24T17:48:33.718Z,8.80
2024-02-24T17:51:02.218Z,8.70
2024-02-24T17:53:29.251Z,8.60
2024-02-24T17:55:56.228Z,8.50
2024-02-24T17:58:32.219Z,8.50
2024-02-24T18:01:07.568Z,8.40
2024-02-24T18:03:34.511Z,8.40
2024-02-24T18:06:02.913Z,8.40
2024-02-24T18:08:29.939Z,8.30
2024-02-24T18:10:57.007Z,8.20
2024-02-24T18:13:23.907Z,8.10
2024-02-24T18:15:50.954Z,8.10
2024-02-24T18:18:18.313Z,8.00
2024-02-24T18:20:45.677Z,7.90
2024-02-24T18:23:14.265Z,7.90
2024-02-24T18:25:41.240Z,7.80
2024-02-24T18:28:09.000Z,7.80
2024-02-24T18:30:36.171Z,7.70
2024-02-24T18:33:03.455Z,7.70
2024-02-24T18:35:31.366Z,7.60
2024-02-24T18:37:58.265Z,7.60
2024-02-24T18:40:26.611Z,7.50
2024-02-24T18:42:53.527Z,7.60
2024-02-24T18:45:20.444Z,7.60
2024-02-24T18:47:47.626Z,7.60
2024-02-24T18:50:14.874Z,7.50
2024-02-24T18:52:41.781Z,7.50
2024-02-24T18:55:09.509Z,7.50
2024-02-24T18:57:37.764Z,7.50
2024-02-24T19:00:05.847Z,7.40
2024-02-24T19:02:34.909Z,7.40
2024-02-24T19:05:02.074Z,7.40
2024-02-24T19:07:29.054Z,7.30
2024-02-24T19:09:57.077Z,7.30
2024-02-24T19:12:24.071Z,7.20
2024-02-24T19:14:57.216Z,7.20
2024-02-24T19:17:25.490Z,7.20
2024-02-24T19:19:54.181Z,7.20
2024-02-24T19:22:21.125Z,7.20
2024-02-24T19:24:48.109Z,7.10
2024-02-24T19:27:15.033Z,7.10
2024-02-24T19:29:45.106Z,7.10
2024-02-24T19:32:14.245Z,7.10
2024-02-24T19:34:41.277Z,7.10
2024-02-24T19:37:11.251Z,7.10
2024-02-24T19:39:38.384Z,7.20
2024-02-24T19:42:05.829Z,7.20
2024-02-24T19:44:33.213Z,7.30
2024-02-24T19:47:00.414Z,7.30
2024-02-24T19:49:28.871Z,7.30
2024-02-24T19:51:55.961Z,7.40
2024-02-24T19:54:23.028Z,7.40
2024-02-24T19:56:50.025Z,7.40
2024-02-24T19:59:16.957Z,7.40
2024-02-24T20:01:44.043Z,7.50
2024-02-24T20:04:11.269Z,7.50
2024-02-24T20:06:40.063Z,7.60
2024-02-24T20:09:07.220Z,7.50
2024-02-24T20:11:34.342Z,7.50
2024-02-24T20:14:01.332Z,7.50
2024-02-24T20:16:28.337Z,7.40
2024-02-24T20:18:55.540Z,7.40
2024-02-24T20:21:23.411Z,7.30
2024-02-24T20:23:51.753Z,7.30
2024-02-24T20:26:18.740Z,7.30
2024-02-24T20:28:46.073Z,7.30
2024-02-24T20:31:13.628Z,7.40
2024-02-24T20:33:47.339Z,7.40
2024-02-24T20:36:20.280Z,7.40
2024-02-24T20:38:48.168Z,7.30
2024-02-24T20:41:18.079Z,7.40
2024-02-24T20:43:45.526Z,7.40
2024-02-24T20:46:13.268Z,7.40
2024-02-24T20:48:40.712Z,7.40
2024-02-24T20:51:07.938Z,7.40
2024-02-24T20:53:35.235Z,7.40
2024-02-24T20:56:02.391Z,7.40
2024-02-24T20:58:32.713Z,7.30
2024-02-24T21:00:59.787Z,7.30
2024-02-24T21:03:26.877Z,7.30
2024-02-24T21:05:54.028Z,7.30
2024-02-24T21:08:21.121Z,7.30
2024-02-24T21:10:48.091Z,7.30
2024-02-24T21:13:15.015Z,7.30
2024-02-24T21:15:43.444Z,7.20
2024-02-24T21:18:10.439Z,7.20
2024-02-24T21:20:37.442Z,7.20
2024-02-24T21:23:04.748Z,7.20
2024-02-24T21:25:32.644Z,7.10
2024-02-24T21:27:59.705Z,7.10
2024-02-24T21:30:26.784Z,7.00
2024-02-24T21:32:55.261Z,7.00
2024-02-24T21:35:22.303Z,6.90
2024-02-24T21:37:49.339Z,6.80
2024-02-24T21:40:16.519Z,6.70
2024-02-24T21:42:43.414Z,6.70
2024-02-24T21:45:10.935Z,6.60
2024-02-24T21:47:38.231Z,6.60
2024-02-24T21:50:07.786Z,6.50
2024-02-24T21:52:36.052Z,6.40
2024-02-24T21:55:03.165Z,6.40
2024-02-24T21:57:30.266Z,6.30
2024-02-24T21:59:57.241Z,6.30
2024-02-24T22:02:24.280Z,6.20
2024-02-24T22:04:51.411Z,6.20
2024-02-24T22:07:22.633Z,6.10
2024-02-24T22:09:49.596Z,6.10
2024-02-24T22:12:16.604Z,6.00
2024-02-24T22:14:43.584Z,6.00
2024-02-24T22:17:12.322Z,6.00
2024-02-24T22:19:39.446Z,5.90
2024-02-24T22:22:06.399Z,5.80
2024-02-24T22:24:34.651Z,5.80
2024-02-24T22:27:01.697Z,5.80
2024-02-24T22:29:28.653Z,5.70
2024-02-24T22:31:56.046Z,5.70
2024-02-24T22:34:23.188Z,5.60
2024-02-24T22:36:50.329Z,5.60
2024-02-24T22:39:17.277Z,5.60
2024-02-24T22:41:46.906Z,5.50
2024-02-24T22:44:14.665Z,5.50
2024-02-24T22:46:41.734Z,5.50
2024-02-24T22:49:08.836Z,5.50
2024-02-24T22:51:36.000Z,5.50
2024-02-24T22:54:03.143Z,5.40
2024-02-24T22:56:31.061Z,5.40
2024-02-24T22:59:02.215Z,5.40
2024-02-24T23:01:31.455Z,5.40
2024-02-24T23:03:58.933Z,5.40
2024-02-24T23:06:26.017Z,5.40
2024-02-24T23:08:53.119Z,5.40
2024-02-24T23:11:29.427Z,5.30
2024-02-24T23:14:01.815Z,5.20
2024-02-24T23:16:29.758Z,5.20
2024-02-24T23:18:58.608Z,5.20
2024-02-24T23:21:30.370Z,5.10
2024-02-24T23:23:57.953Z,5.10
2024-02-24T23:26:24.986Z,5.10
2024-02-24T23:28:52.017Z,5.00
2024-02-24T23:31:20.367Z,5.00
2024-02-24T23:33:47.414Z,5.00
2024-02-24T23:36:14.937Z,5.00
2024-02-24T23:38:42.061Z,5.00
2024-02-24T23:41:09.025Z,5.10
2024-02-24T23:43:36.927Z,5.00
2024-02-24T23:46:03.869Z,5.00
2024-02-24T23:48:41.497Z,5.00
2024-02-24T23:51:09.233Z,5.00
2024-02-24T23:53:36.298Z,5.10
2024-02-24T23:56:03.512Z,5.10
2024-02-24T23:58:30.455Z,5.10
